createdAt,value
2023-01-12T00:00:20.471Z,1008.63
2023-01-12T00:01:20.426Z,1008.52
2023-01-12T00:02:20.463Z,1008.53
2023-01-12T00:03:20.432Z,1008.50
2023-01-12T00:04:20.536Z,1008.54
2023-01-12T00:05:20.421Z,1008.56
2023-01-12T00:06:20.412Z,1008.51
2023-01-12T00:07:20.686Z,1008.51
2023-01-12T00:08:20.434Z,1008.50
2023-01-12T00:09:20.417Z,1008.54
2023-01-12T00:10:20.403Z,1008.54
2023-01-12T00:11:20.403Z,1008.52
2023-01-12T00:12:20.399Z,1008.55
2023-01-12T00:13:20.389Z,1008.52
2023-01-12T00:14:20.379Z,1008.54
2023-01-12T00:15:20.389Z,1008.61
2023-01-12T00:16:20.416Z,1008.53
2023-01-12T00:17:20.381Z,1008.54
2023-01-12T00:18:20.362Z,1008.51
2023-01-12T00:19:20.389Z,1008.52
2023-01-12T00:20:20.365Z,1008.54
2023-01-12T00:21:20.368Z,1008.45
2023-01-12T00:22:20.367Z,1008.50
2023-01-12T00:23:20.366Z,1008.45
2023-01-12T00:24:20.366Z,1008.46
2023-01-12T00:25:20.355Z,1008.42
2023-01-12T00:26:20.337Z,1008.40
2023-01-12T00:27:20.349Z,1008.39
2023-01-12T00:28:20.369Z,1008.42
2023-01-12T00:29:20.345Z,1008.39
2023-01-12T00:30:20.334Z,1008.38
2023-01-12T00:31:20.374Z,1008.43
2023-01-12T00:32:20.326Z,1008.41
2023-01-12T00:33:20.322Z,1008.40
2023-01-12T00:34:20.323Z,1008.35
2023-01-12T00:35:20.335Z,1008.40
2023-01-12T00:36:20.307Z,1008.45
2023-01-12T00:37:20.320Z,1008.34
2023-01-12T00:38:20.302Z,1008.34
2023-01-12T00:39:20.293Z,1008.33
2023-01-12T00:40:20.449Z,1008.32
2023-01-12T00:41:20.287Z,1008.38
2023-01-12T00:42:20.283Z,1008.43
2023-01-12T00:43:20.285Z,1008.50
2023-01-12T00:44:20.276Z,1008.55
2023-01-12T00:45:20.299Z,1008.53
2023-01-12T00:46:20.304Z,1008.49
2023-01-12T00:47:20.269Z,1008.41
2023-01-12T00:48:20.288Z,1008.41
2023-01-12T00:49:20.275Z,1008.50
2023-01-12T00:50:20.272Z,1008.43
2023-01-12T00:51:20.255Z,1008.34
2023-01-12T00:52:29.850Z,1008.35
2023-01-12T00:53:20.267Z,1008.51
2023-01-12T00:54:20.263Z,1008.41
2023-01-12T00:55:20.250Z,1008.49
2023-01-12T00:56:20.265Z,1008.46
2023-01-12T00:57:20.250Z,1008.43
2023-01-12T00:58:20.258Z,1008.36
2023-01-12T00:59:20.263Z,1008.35
2023-01-12T01:00:20.223Z,1008.38
2023-01-12T01:01:20.384Z,1008.39
2023-01-12T01:02:20.341Z,1008.41
2023-01-12T01:03:20.233Z,1008.40
2023-01-12T01:04:20.204Z,1008.44
2023-01-12T01:05:20.227Z,1008.39
2023-01-12T01:06:20.217Z,1008.38
2023-01-12T01:07:20.213Z,1008.38
2023-01-12T01:08:20.192Z,1008.37
2023-01-12T01:09:20.211Z,1008.38
2023-01-12T01:10:20.184Z,1008.35
2023-01-12T01:11:20.205Z,1008.34
2023-01-12T01:12:20.208Z,1008.36
2023-01-12T01:13:20.257Z,1008.41
2023-01-12T01:14:20.996Z,1008.25
2023-01-12T01:15:20.176Z,1008.25
2023-01-12T01:16:20.276Z,1008.28
2023-01-12T01:17:20.176Z,1008.41
2023-01-12T01:18:20.151Z,1008.24
2023-01-12T01:19:20.167Z,1008.28
2023-01-12T01:20:20.201Z,1008.33
2023-01-12T01:21:20.169Z,1008.30
2023-01-12T01:22:20.169Z,1008.26
2023-01-12T01:23:20.160Z,1008.30
2023-01-12T01:24:20.165Z,1008.28
2023-01-12T01:25:20.152Z,1008.29
2023-01-12T01:26:20.136Z,1008.30
2023-01-12T01:27:20.146Z,1008.30
2023-01-12T01:28:20.237Z,1008.34
2023-01-12T01:29:20.402Z,1008.35
2023-01-12T01:30:20.127Z,1008.39
2023-01-12T01:31:20.175Z,1008.27
2023-01-12T01:32:20.115Z,1008.34
2023-01-12T01:33:20.113Z,1008.36
2023-01-12T01:34:20.110Z,1008.29
2023-01-12T01:35:20.112Z,1008.37
2023-01-12T01:36:20.093Z,1008.24
2023-01-12T01:37:20.107Z,1008.29
2023-01-12T01:38:20.119Z,1008.32
2023-01-12T01:39:20.117Z,1008.39
2023-01-12T01:40:20.108Z,1008.29
2023-01-12T01:41:20.125Z,1008.28
2023-01-12T01:42:20.086Z,1008.28
2023-01-12T01:43:20.106Z,1008.16
2023-01-12T01:44:20.104Z,1008.19
2023-01-12T01:45:20.067Z,1008.17
2023-01-12T01:46:20.064Z,1008.14
2023-01-12T01:47:20.060Z,1008.20
2023-01-12T01:48:20.077Z,1008.19
2023-01-12T01:49:20.087Z,1008.18
2023-01-12T01:50:20.051Z,1008.13
2023-01-12T01:51:20.068Z,1008.17
2023-01-12T01:52:20.041Z,1008.21
2023-01-12T01:53:20.041Z,1008.17
2023-01-12T01:54:20.039Z,1008.21
2023-01-12T01:55:20.059Z,1008.15
2023-01-12T01:56:20.039Z,1008.15
2023-01-12T01:57:20.044Z,1008.12
2023-01-12T01:58:20.033Z,1008.08
2023-01-12T01:59:20.043Z,1008.04
2023-01-12T02:00:20.054Z,1008.02
2023-01-12T02:01:20.251Z,1008.03
2023-01-12T02:02:20.092Z,1007.99
2023-01-12T02:03:20.046Z,1007.94
2023-01-12T02:04:20.006Z,1007.86
2023-01-12T02:05:20.035Z,1007.86
2023-01-12T02:06:19.996Z,1007.91
2023-01-12T02:07:20.033Z,1007.93
2023-01-12T02:08:19.983Z,1007.94
2023-01-12T02:09:20.004Z,1007.82
2023-01-12T02:10:19.996Z,1007.85
2023-01-12T02:11:19.977Z,1007.82
2023-01-12T02:12:19.988Z,1007.81
2023-01-12T02:13:19.976Z,1007.81
2023-01-12T02:14:22.628Z,1007.70
2023-01-12T02:15:19.974Z,1007.67
2023-01-12T02:16:20.206Z,1007.64
2023-01-12T02:17:19.961Z,1007.63
2023-01-12T02:18:19.964Z,1007.69
2023-01-12T02:19:19.952Z,1007.66
2023-01-12T02:20:19.971Z,1007.66
2023-01-12T02:21:19.941Z,1007.61
2023-01-12T02:22:20.149Z,1007.57
2023-01-12T02:23:19.955Z,1007.56
2023-01-12T02:24:19.960Z,1007.59
2023-01-12T02:25:19.940Z,1007.59
2023-01-12T02:26:19.951Z,1007.55
2023-01-12T02:27:19.924Z,1007.52
2023-01-12T02:28:22.796Z,1007.58
2023-01-12T02:29:19.938Z,1007.57
2023-01-12T02:30:19.919Z,1007.57
2023-01-12T02:31:19.943Z,1007.60
2023-01-12T02:32:19.951Z,1007.61
2023-01-12T02:33:19.918Z,1007.47
2023-01-12T02:34:20.105Z,1007.50
2023-01-12T02:35:19.910Z,1007.53
2023-01-12T02:36:20.156Z,1007.48
2023-01-12T02:37:19.908Z,1007.46
2023-01-12T02:38:19.917Z,1007.44
2023-01-12T02:39:19.904Z,1007.46
2023-01-12T02:40:23.735Z,1007.48
2023-01-12T02:41:19.881Z,1007.39
2023-01-12T02:42:19.884Z,1007.42
2023-01-12T02:43:19.878Z,1007.38
2023-01-12T02:44:19.867Z,1007.34
2023-01-12T02:45:19.856Z,1007.33
2023-01-12T02:46:19.906Z,1007.31
2023-01-12T02:47:19.866Z,1007.32
2023-01-12T02:48:19.887Z,1007.37
2023-01-12T02:49:19.857Z,1007.39
2023-01-12T02:50:19.841Z,1007.31
2023-01-12T02:51:19.839Z,1007.29
2023-01-12T02:52:19.854Z,1007.29
2023-01-12T02:53:19.825Z,1007.36
2023-01-12T02:54:19.850Z,1007.30
2023-01-12T02:55:19.828Z,1007.47
2023-01-12T02:56:19.842Z,1007.31
2023-01-12T02:57:19.827Z,1007.31
2023-01-12T02:58:19.815Z,1007.36
2023-01-12T02:59:19.823Z,1007.25
2023-01-12T03:00:19.821Z,1007.33
2023-01-12T03:01:19.957Z,1007.29
2023-01-12T03:02:19.810Z,1007.29
2023-01-12T03:03:19.979Z,1007.25
2023-01-12T03:04:19.887Z,1007.19
2023-01-12T03:05:19.805Z,1007.19
2023-01-12T03:06:19.806Z,1007.20
2023-01-12T03:07:19.800Z,1007.17
2023-01-12T03:08:19.796Z,1007.24
2023-01-12T03:09:19.791Z,1007.25
2023-01-12T03:10:19.784Z,1007.24
2023-01-12T03:11:19.778Z,1007.26
2023-01-12T03:12:19.769Z,1007.16
2023-01-12T03:13:19.764Z,1007.15
2023-01-12T03:14:19.769Z,1007.14
2023-01-12T03:15:19.785Z,1007.18
2023-01-12T03:16:19.853Z,1007.19
2023-01-12T03:17:19.750Z,1007.12
2023-01-12T03:18:19.763Z,1007.09
2023-01-12T03:19:19.751Z,1007.09
2023-01-12T03:20:22.444Z,1007.08
2023-01-12T03:21:19.733Z,1007.06
2023-01-12T03:22:19.764Z,1007.05
2023-01-12T03:23:19.723Z,1007.05
2023-01-12T03:24:19.735Z,1007.02
2023-01-12T03:25:19.723Z,1007.00
2023-01-12T03:26:19.721Z,1006.99
2023-01-12T03:27:19.723Z,1006.96
2023-01-12T03:28:19.712Z,1006.99
2023-01-12T03:29:19.719Z,1006.94
2023-01-12T03:30:19.706Z,1006.93
2023-01-12T03:31:19.743Z,1006.95
2023-01-12T03:32:19.699Z,1006.87
2023-01-12T03:33:19.694Z,1006.95
2023-01-12T03:34:19.699Z,1006.87
2023-01-12T03:35:19.697Z,1006.91
2023-01-12T03:36:19.810Z,1006.85
2023-01-12T03:37:19.689Z,1006.87
2023-01-12T03:38:19.684Z,1006.83
2023-01-12T03:39:19.681Z,1006.88
2023-01-12T03:40:19.679Z,1006.77
2023-01-12T03:41:19.662Z,1006.83
2023-01-12T03:42:19.681Z,1006.86
2023-01-12T03:43:19.661Z,1006.85
2023-01-12T03:44:19.733Z,1006.81
2023-01-12T03:45:19.672Z,1006.81
2023-01-12T03:46:19.648Z,1006.77
2023-01-12T03:47:19.646Z,1006.81
2023-01-12T03:48:19.647Z,1006.78
2023-01-12T03:49:19.634Z,1006.73
2023-01-12T03:50:19.642Z,1006.74
2023-01-12T03:51:19.628Z,1006.77
2023-01-12T03:52:19.674Z,1006.73
2023-01-12T03:53:19.633Z,1006.65
2023-01-12T03:54:19.626Z,1006.70
2023-01-12T03:55:19.622Z,1006.67
2023-01-12T03:56:19.644Z,1006.66
2023-01-12T03:57:19.617Z,1006.72
2023-01-12T03:58:19.610Z,1006.70
2023-01-12T03:59:19.613Z,1006.74
2023-01-12T04:00:19.599Z,1006.67
2023-01-12T04:01:19.830Z,1006.67
2023-01-12T04:02:19.601Z,1006.67
2023-01-12T04:03:19.618Z,1006.54
2023-01-12T04:04:19.585Z,1006.57
2023-01-12T04:05:19.598Z,1006.57
2023-01-12T04:06:19.593Z,1006.57
2023-01-12T04:07:19.589Z,1006.54
2023-01-12T04:08:19.599Z,1006.53
2023-01-12T04:09:19.583Z,1006.66
2023-01-12T04:10:19.569Z,1006.53
2023-01-12T04:11:19.555Z,1006.54
2023-01-12T04:12:19.561Z,1006.47
2023-01-12T04:13:19.572Z,1006.45
2023-01-12T04:14:19.567Z,1006.55
2023-01-12T04:15:19.555Z,1006.43
2023-01-12T04:16:22.601Z,1006.42
2023-01-12T04:17:19.742Z,1006.42
2023-01-12T04:18:20.168Z,1006.44
2023-01-12T04:19:19.553Z,1006.38
2023-01-12T04:20:19.544Z,1006.41
2023-01-12T04:21:19.534Z,1006.42
2023-01-12T04:22:19.566Z,1006.36
2023-01-12T04:23:19.536Z,1006.33
2023-01-12T04:24:19.727Z,1006.33
2023-01-12T04:25:19.758Z,1006.32
2023-01-12T04:26:19.740Z,1006.32
2023-01-12T04:27:19.500Z,1006.30
2023-01-12T04:28:19.772Z,1006.32
2023-01-12T04:29:19.511Z,1006.21
2023-01-12T04:30:19.507Z,1006.24
2023-01-12T04:31:19.527Z,1006.23
2023-01-12T04:32:19.505Z,1006.28
2023-01-12T04:33:19.487Z,1006.32
2023-01-12T04:34:19.492Z,1006.27
2023-01-12T04:35:19.470Z,1006.26
2023-01-12T04:36:19.479Z,1006.27
2023-01-12T04:37:19.476Z,1006.20
2023-01-12T04:38:19.481Z,1006.15
2023-01-12T04:39:19.487Z,1006.19
2023-01-12T04:40:19.501Z,1006.15
2023-01-12T04:41:19.863Z,1006.26
2023-01-12T04:42:22.339Z,1006.14
2023-01-12T04:43:19.485Z,1006.19
2023-01-12T04:44:19.659Z,1006.19
2023-01-12T04:45:19.674Z,1006.14
2023-01-12T04:46:19.482Z,1006.07
2023-01-12T04:47:19.446Z,1006.06
2023-01-12T04:48:25.143Z,1006.04
2023-01-12T04:49:19.568Z,1006.07
2023-01-12T04:50:19.504Z,1006.03
2023-01-12T04:51:19.429Z,1005.93
2023-01-12T04:52:19.430Z,1005.95
2023-01-12T04:53:19.449Z,1005.95
2023-01-12T04:54:19.418Z,1005.96
2023-01-12T04:55:19.663Z,1005.93
2023-01-12T04:56:19.631Z,1005.91
2023-01-12T04:57:19.413Z,1005.92
2023-01-12T04:58:19.609Z,1005.92
2023-01-12T04:59:19.404Z,1005.82
2023-01-12T05:00:20.423Z,1005.82
2023-01-12T05:01:19.499Z,1005.78
2023-01-12T05:02:19.401Z,1005.82
2023-01-12T05:03:19.593Z,1005.83
2023-01-12T05:04:19.450Z,1005.79
2023-01-12T05:05:19.370Z,1005.80
2023-01-12T05:06:19.368Z,1005.81
2023-01-12T05:07:19.596Z,1005.73
2023-01-12T05:08:19.479Z,1005.80
2023-01-12T05:09:20.096Z,1005.73
2023-01-12T05:10:19.376Z,1005.73
2023-01-12T05:11:19.357Z,1005.78
2023-01-12T05:12:19.385Z,1005.74
2023-01-12T05:13:19.569Z,1005.70
2023-01-12T05:14:19.345Z,1005.69
2023-01-12T05:15:19.342Z,1005.68
2023-01-12T05:16:19.366Z,1005.67
2023-01-12T05:17:19.338Z,1005.67
2023-01-12T05:18:19.337Z,1005.66
2023-01-12T05:19:19.341Z,1005.57
2023-01-12T05:20:19.314Z,1005.61
2023-01-12T05:21:19.564Z,1005.56
2023-01-12T05:22:19.521Z,1005.48
2023-01-12T05:23:19.379Z,1005.41
2023-01-12T05:24:19.303Z,1005.34
2023-01-12T05:25:19.290Z,1005.32
2023-01-12T05:26:20.326Z,1005.34
2023-01-12T05:27:19.297Z,1005.20
2023-01-12T05:28:19.310Z,1005.22
2023-01-12T05:29:19.279Z,1005.25
2023-01-12T05:30:19.278Z,1005.19
2023-01-12T05:31:19.278Z,1005.27
2023-01-12T05:32:19.288Z,1005.28
2023-01-12T05:33:19.264Z,1005.21
2023-01-12T05:34:19.265Z,1005.18
2023-01-12T05:35:19.268Z,1005.17
2023-01-12T05:36:19.258Z,1005.20
2023-01-12T05:37:19.267Z,1005.19
2023-01-12T05:38:19.264Z,1005.17
2023-01-12T05:39:19.247Z,1005.13
2023-01-12T05:40:19.261Z,1005.14
2023-01-12T05:41:19.238Z,1005.13
2023-01-12T05:42:19.395Z,1005.03
2023-01-12T05:43:19.248Z,1005.05
2023-01-12T05:44:19.262Z,1005.04
2023-01-12T05:45:19.221Z,1004.98
2023-01-12T05:46:19.308Z,1004.99
2023-01-12T05:47:19.230Z,1004.92
2023-01-12T05:48:19.238Z,1004.92
2023-01-12T05:49:19.223Z,1004.80
2023-01-12T05:50:19.218Z,1004.90
2023-01-12T05:51:19.212Z,1004.82
2023-01-12T05:52:19.225Z,1004.81
2023-01-12T05:53:19.193Z,1004.82
2023-01-12T05:54:19.206Z,1004.90
2023-01-12T05:55:19.183Z,1004.79
2023-01-12T05:56:19.199Z,1004.79
2023-01-12T05:57:19.182Z,1004.82
2023-01-12T05:58:19.180Z,1004.85
2023-01-12T05:59:19.173Z,1004.77
2023-01-12T06:00:19.291Z,1004.73
2023-01-12T06:01:19.235Z,1004.84
2023-01-12T06:02:19.186Z,1004.78
2023-01-12T06:03:19.154Z,1004.74
2023-01-12T06:04:19.213Z,1004.77
2023-01-12T06:05:19.176Z,1004.73
2023-01-12T06:06:19.167Z,1004.70
2023-01-12T06:07:19.150Z,1004.78
2023-01-12T06:08:19.157Z,1004.66
2023-01-12T06:09:19.152Z,1004.73
2023-01-12T06:10:19.144Z,1004.67
2023-01-12T06:11:19.130Z,1004.71
2023-01-12T06:12:19.147Z,1004.65
2023-01-12T06:13:19.117Z,1004.56
2023-01-12T06:14:19.117Z,1004.61
2023-01-12T06:15:19.123Z,1004.63
2023-01-12T06:16:19.258Z,1004.68
2023-01-12T06:17:19.166Z,1004.67
2023-01-12T06:18:19.110Z,1004.63
2023-01-12T06:19:19.127Z,1004.59
2023-01-12T06:20:19.099Z,1004.61
2023-01-12T06:21:19.313Z,1004.67
2023-01-12T06:22:19.114Z,1004.63
2023-01-12T06:23:19.100Z,1004.62
2023-01-12T06:24:19.100Z,1004.56
2023-01-12T06:25:19.278Z,1004.52
2023-01-12T06:26:22.718Z,1004.61
2023-01-12T06:27:19.329Z,1004.46
2023-01-12T06:28:19.070Z,1004.52
2023-01-12T06:29:19.078Z,1004.54
2023-01-12T06:30:19.073Z,1004.54
2023-01-12T06:31:19.116Z,1004.45
2023-01-12T06:32:19.111Z,1004.48
2023-01-12T06:33:19.059Z,1004.49
2023-01-12T06:34:19.060Z,1004.47
2023-01-12T06:35:19.962Z,1004.48
2023-01-12T06:36:19.047Z,1004.39
2023-01-12T06:37:19.056Z,1004.35
2023-01-12T06:38:19.204Z,1004.40
2023-01-12T06:39:19.031Z,1004.44
2023-01-12T06:40:19.042Z,1004.45
2023-01-12T06:41:19.031Z,1004.39
2023-01-12T06:42:19.038Z,1004.28
2023-01-12T06:43:19.024Z,1004.33
2023-01-12T06:52:02.543Z,1004.36
2023-01-12T06:53:02.530Z,1004.28
2023-01-12T06:54:02.733Z,1004.30
2023-01-12T06:55:02.522Z,1004.28
2023-01-12T06:56:02.912Z,1004.28
2023-01-12T06:57:02.717Z,1004.22
2023-01-12T06:58:02.529Z,1004.26
2023-01-12T06:59:02.509Z,1004.25
2023-01-12T07:00:02.505Z,1004.27
2023-01-12T07:01:02.558Z,1004.25
2023-01-12T07:02:02.544Z,1004.22
2023-01-12T07:03:02.507Z,1004.24
2023-01-12T07:04:02.605Z,1004.10
2023-01-12T07:05:02.483Z,1004.12
2023-01-12T07:06:02.491Z,1004.18
2023-01-12T07:07:02.479Z,1004.11
2023-01-12T07:08:02.505Z,1004.11
2023-01-12T07:09:02.489Z,1004.09
2023-01-12T07:10:02.488Z,1004.09
2023-01-12T07:11:02.464Z,1004.09
2023-01-12T07:12:02.475Z,1004.09
2023-01-12T07:13:02.478Z,1004.06
2023-01-12T07:14:02.467Z,1004.07
2023-01-12T07:15:02.471Z,1004.00
2023-01-12T07:16:02.571Z,1004.01
2023-01-12T07:17:02.453Z,1004.01
2023-01-12T07:18:02.454Z,1004.03
2023-01-12T07:19:02.446Z,1004.03
2023-01-12T07:20:02.459Z,1003.97
2023-01-12T07:21:02.452Z,1003.98
2023-01-12T07:22:02.467Z,1004.05
2023-01-12T07:23:02.452Z,1003.95
2023-01-12T07:24:02.467Z,1003.96
2023-01-12T07:25:02.453Z,1003.91
2023-01-12T07:26:02.455Z,1003.94
2023-01-12T07:27:02.429Z,1003.98
2023-01-12T07:28:02.432Z,1003.97
2023-01-12T07:29:02.435Z,1003.90
2023-01-12T07:30:02.422Z,1003.96
2023-01-12T07:31:02.577Z,1003.99
2023-01-12T07:32:02.426Z,1003.98
2023-01-12T07:33:02.399Z,1003.97
2023-01-12T07:34:02.421Z,1003.91
2023-01-12T07:35:02.421Z,1003.92
2023-01-12T07:36:02.407Z,1003.96
2023-01-12T07:37:02.397Z,1003.95
2023-01-12T07:38:02.402Z,1003.99
2023-01-12T07:39:02.386Z,1003.97
2023-01-12T07:40:02.433Z,1004.00
2023-01-12T07:41:02.418Z,1004.02
2023-01-12T07:42:02.394Z,1003.90
2023-01-12T07:43:02.391Z,1004.04
2023-01-12T07:44:02.394Z,1004.01
2023-01-12T07:45:02.377Z,1003.88
2023-01-12T07:46:02.436Z,1003.96
2023-01-12T07:47:02.404Z,1003.96
2023-01-12T07:48:02.377Z,1003.99
2023-01-12T07:49:02.367Z,1003.93
2023-01-12T07:50:02.372Z,1003.99
2023-01-12T07:51:02.352Z,1003.97
2023-01-12T07:52:02.357Z,1003.87
2023-01-12T07:53:02.375Z,1003.96
2023-01-12T07:54:02.371Z,1003.92
2023-01-12T07:55:02.358Z,1003.94
2023-01-12T07:56:02.365Z,1004.05
2023-01-12T07:57:02.353Z,1004.01
2023-01-12T07:58:02.375Z,1004.03
2023-01-12T07:59:02.328Z,1003.98
2023-01-12T08:00:02.348Z,1003.99
2023-01-12T08:01:02.430Z,1004.00
2023-01-12T08:02:02.434Z,1004.02
2023-01-12T08:03:02.331Z,1003.99
2023-01-12T08:04:02.369Z,1003.89
2023-01-12T08:05:02.549Z,1003.92
2023-01-12T08:06:02.550Z,1004.05
2023-01-12T08:07:02.326Z,1003.93
2023-01-12T08:08:03.654Z,1003.94
2023-01-12T08:09:02.319Z,1004.10
2023-01-12T08:10:02.339Z,1004.10
2023-01-12T08:11:02.318Z,1004.05
2023-01-12T08:12:02.315Z,1004.07
2023-01-12T08:13:02.302Z,1004.05
2023-01-12T08:14:02.311Z,1004.03
2023-01-12T08:15:02.320Z,1004.02
2023-01-12T08:16:02.304Z,1004.06
2023-01-12T08:17:02.291Z,1004.00
2023-01-12T08:18:05.024Z,1004.01
2023-01-12T08:19:02.309Z,1003.98
2023-01-12T08:20:02.302Z,1004.06
2023-01-12T08:21:02.289Z,1004.00
2023-01-12T08:22:02.409Z,1004.02
2023-01-12T08:23:02.536Z,1004.05
2023-01-12T08:24:02.279Z,1003.97
2023-01-12T08:25:02.278Z,1003.87
2023-01-12T08:26:02.275Z,1003.86
2023-01-12T08:27:02.245Z,1004.07
2023-01-12T08:28:02.528Z,1003.91
2023-01-12T08:29:02.258Z,1004.05
2023-01-12T08:30:02.258Z,1004.02
2023-01-12T08:31:02.250Z,1003.88
2023-01-12T08:32:04.433Z,1003.91
2023-01-12T08:33:02.233Z,1004.01
2023-01-12T08:34:02.253Z,1004.01
2023-01-12T08:35:02.351Z,1004.03
2023-01-12T08:36:02.319Z,1003.89
2023-01-12T08:37:02.234Z,1003.94
2023-01-12T08:38:02.235Z,1003.97
2023-01-12T08:39:02.231Z,1003.97
2023-01-12T08:40:02.236Z,1003.91
2023-01-12T08:41:02.231Z,1003.99
2023-01-12T08:42:02.209Z,1003.90
2023-01-12T08:43:02.207Z,1004.05
2023-01-12T08:44:02.230Z,1003.90
2023-01-12T08:45:02.250Z,1003.94
2023-01-12T08:46:02.202Z,1003.96
2023-01-12T08:47:02.191Z,1003.99
2023-01-12T08:48:02.301Z,1003.97
2023-01-12T08:49:02.199Z,1003.94
2023-01-12T08:50:02.228Z,1004.05
2023-01-12T08:51:02.190Z,1003.79
2023-01-12T08:52:02.192Z,1004.00
2023-01-12T08:53:02.187Z,1004.06
2023-01-12T08:54:02.186Z,1004.07
2023-01-12T08:55:02.197Z,1004.17
2023-01-12T08:56:02.174Z,1004.04
2023-01-12T08:57:02.168Z,1004.01
2023-01-12T08:58:02.173Z,1004.10
2023-01-12T08:59:02.170Z,1003.98
2023-01-12T09:00:02.178Z,1004.10
2023-01-12T09:01:02.363Z,1004.08
2023-01-12T09:02:02.219Z,1004.12
2023-01-12T09:03:02.152Z,1004.13
2023-01-12T09:04:02.156Z,1004.13
2023-01-12T09:05:02.150Z,1004.08
2023-01-12T09:06:02.134Z,1004.09
2023-01-12T09:07:02.140Z,1004.04
2023-01-12T09:08:02.126Z,1004.11
2023-01-12T09:09:02.144Z,1004.16
2023-01-12T09:10:02.171Z,1004.01
2023-01-12T09:11:02.148Z,1004.08
2023-01-12T09:12:02.122Z,1004.05
2023-01-12T09:13:02.156Z,1004.11
2023-01-12T09:14:02.123Z,1004.10
2023-01-12T09:15:02.133Z,1004.08
2023-01-12T09:16:12.168Z,1004.16
2023-01-12T09:17:02.145Z,1004.21
2023-01-12T09:18:02.097Z,1004.14
2023-01-12T09:19:02.117Z,1004.12
2023-01-12T09:20:02.130Z,1004.16
2023-01-12T09:21:02.097Z,1004.12
2023-01-12T09:22:02.079Z,1004.16
2023-01-12T09:23:02.079Z,1004.17
2023-01-12T09:24:02.124Z,1004.21
2023-01-12T09:25:02.079Z,1004.13
2023-01-12T09:26:02.082Z,1004.20
2023-01-12T09:27:02.093Z,1004.25
2023-01-12T09:28:02.066Z,1004.14
2023-01-12T09:29:02.070Z,1004.14
2023-01-12T09:30:02.070Z,1004.19
2023-01-12T09:31:02.087Z,1004.18
2023-01-12T09:32:02.201Z,1004.22
2023-01-12T09:33:02.076Z,1004.22
2023-01-12T09:34:02.043Z,1004.21
2023-01-12T09:35:02.039Z,1004.17
2023-01-12T09:36:02.051Z,1004.25
2023-01-12T09:37:02.048Z,1004.25
2023-01-12T09:38:02.052Z,1004.27
2023-01-12T09:39:02.064Z,1004.16
2023-01-12T09:40:02.038Z,1004.28
2023-01-12T09:41:02.496Z,1004.30
2023-01-12T09:42:02.037Z,1004.31
2023-01-12T09:43:02.024Z,1004.33
2023-01-12T09:44:02.042Z,1004.24
2023-01-12T09:45:02.046Z,1004.33
2023-01-12T09:46:02.111Z,1004.30
2023-01-12T09:47:02.011Z,1004.38
2023-01-12T09:48:02.116Z,1004.38
2023-01-12T09:49:02.014Z,1004.42
2023-01-12T09:50:09.429Z,1004.40
2023-01-12T09:51:02.006Z,1004.41
2023-01-12T09:52:01.998Z,1004.40
2023-01-12T09:53:01.991Z,1004.46
2023-01-12T09:54:01.999Z,1004.47
2023-01-12T09:55:01.985Z,1004.44
2023-01-12T09:56:01.989Z,1004.40
2023-01-12T09:57:01.968Z,1004.43
2023-01-12T09:58:01.983Z,1004.61
2023-01-12T09:59:01.979Z,1004.49
2023-01-12T10:00:01.971Z,1004.50
2023-01-12T10:01:02.032Z,1004.46
2023-01-12T10:02:02.086Z,1004.50
2023-01-12T10:03:02.061Z,1004.49
2023-01-12T10:04:02.003Z,1004.43
2023-01-12T10:05:01.986Z,1004.57
2023-01-12T10:06:01.987Z,1004.44
2023-01-12T10:07:01.958Z,1004.48
2023-01-12T10:08:02.050Z,1004.53
2023-01-12T10:09:01.966Z,1004.52
2023-01-12T10:10:01.934Z,1004.59
2023-01-12T10:11:04.558Z,1004.53
2023-01-12T10:12:01.946Z,1004.59
2023-01-12T10:13:02.213Z,1004.65
2023-01-12T10:15:11.861Z,1004.58
2023-01-12T10:16:12.000Z,1004.61
2023-01-12T10:17:11.868Z,1004.58
2023-01-12T10:18:11.850Z,1004.60
2023-01-12T10:19:11.855Z,1004.52
2023-01-12T10:20:11.827Z,1004.64
2023-01-12T10:21:11.832Z,1004.58
2023-01-12T10:22:11.822Z,1004.59
2023-01-12T10:23:11.825Z,1004.63
2023-01-12T10:24:11.818Z,1004.60
2023-01-12T10:25:11.822Z,1004.69
2023-01-12T10:26:11.796Z,1004.57
2023-01-12T10:27:11.821Z,1004.62
2023-01-12T10:28:11.808Z,1004.71
2023-01-12T10:29:11.809Z,1004.59
2023-01-12T10:30:11.812Z,1004.59
2023-01-12T10:31:11.788Z,1004.59
2023-01-12T10:32:11.781Z,1004.57
2023-01-12T10:33:11.823Z,1004.62
2023-01-12T10:34:11.777Z,1004.54
2023-01-12T10:35:11.793Z,1004.65
2023-01-12T10:36:11.765Z,1004.61
2023-01-12T10:37:11.771Z,1004.61
2023-01-12T10:38:11.771Z,1004.66
2023-01-12T10:39:11.762Z,1004.56
2023-01-12T10:40:11.754Z,1004.59
2023-01-12T10:41:11.767Z,1004.58
2023-01-12T10:42:11.753Z,1004.61
2023-01-12T10:43:15.717Z,1004.60
2023-01-12T10:44:11.761Z,1004.64
2023-01-12T10:45:11.768Z,1004.59
2023-01-12T10:46:11.842Z,1004.60
2023-01-12T10:47:11.739Z,1004.60
2023-01-12T10:48:11.750Z,1004.61
2023-01-12T10:49:11.744Z,1004.68
2023-01-12T10:50:11.768Z,1004.68
2023-01-12T10:51:11.756Z,1004.70
2023-01-12T10:52:11.716Z,1004.52
2023-01-12T10:53:11.725Z,1004.69
2023-01-12T10:54:11.723Z,1004.68
2023-01-12T10:55:11.712Z,1004.56
2023-01-12T10:56:11.724Z,1004.61
2023-01-12T10:57:11.717Z,1004.62
2023-01-12T10:58:11.702Z,1004.60
2023-01-12T10:59:11.697Z,1004.60
2023-01-12T11:00:11.690Z,1004.64
2023-01-12T11:01:11.812Z,1004.67
2023-01-12T11:02:12.022Z,1004.66
2023-01-12T11:03:11.706Z,1004.66
2023-01-12T11:04:11.691Z,1004.57
2023-01-12T11:05:11.677Z,1004.56
2023-01-12T11:06:11.670Z,1004.65
2023-01-12T11:07:11.698Z,1004.62
2023-01-12T11:08:11.663Z,1004.56
2023-01-12T11:09:11.664Z,1004.63
2023-01-12T11:10:11.657Z,1004.69
2023-01-12T11:11:11.661Z,1004.55
2023-01-12T11:12:11.651Z,1004.52
2023-01-12T11:13:11.653Z,1004.56
2023-01-12T11:14:13.192Z,1004.56
2023-01-12T11:15:11.644Z,1004.47
2023-01-12T11:16:11.784Z,1004.47
2023-01-12T11:17:11.637Z,1004.53
2023-01-12T11:18:11.644Z,1004.48
2023-01-12T11:19:11.636Z,1004.46
2023-01-12T11:20:11.640Z,1004.57
2023-01-12T11:21:11.647Z,1004.55
2023-01-12T11:22:11.619Z,1004.46
2023-01-12T11:23:11.660Z,1004.49
2023-01-12T11:24:11.624Z,1004.45
2023-01-12T11:25:11.627Z,1004.48
2023-01-12T11:26:11.609Z,1004.47
2023-01-12T11:27:11.621Z,1004.55
2023-01-12T11:28:11.606Z,1004.52
2023-01-12T11:29:11.607Z,1004.53
2023-01-12T11:30:11.606Z,1004.46
2023-01-12T11:31:11.642Z,1004.41
2023-01-12T11:32:11.616Z,1004.50
2023-01-12T11:33:11.603Z,1004.41
2023-01-12T11:34:11.588Z,1004.50
2023-01-12T11:35:11.589Z,1004.49
2023-01-12T11:36:11.588Z,1004.47
2023-01-12T11:37:11.590Z,1004.40
2023-01-12T11:38:11.587Z,1004.54
2023-01-12T11:39:11.607Z,1004.44
2023-01-12T11:40:11.576Z,1004.41
2023-01-12T11:41:11.565Z,1004.49
2023-01-12T11:42:11.566Z,1004.43
2023-01-12T11:43:11.595Z,1004.40
2023-01-12T11:44:11.573Z,1004.49
2023-01-12T11:45:11.552Z,1004.49
2023-01-12T11:46:11.655Z,1004.49
2023-01-12T11:47:11.565Z,1004.39
2023-01-12T11:48:11.532Z,1004.34
2023-01-12T11:49:11.541Z,1004.41
2023-01-12T11:50:11.560Z,1004.32
2023-01-12T11:51:11.531Z,1004.24
2023-01-12T11:52:11.535Z,1004.32
2023-01-12T11:53:11.531Z,1004.32
2023-01-12T11:54:11.529Z,1004.25
2023-01-12T11:55:11.556Z,1004.34
2023-01-12T11:56:11.534Z,1004.23
2023-01-12T11:57:11.517Z,1004.28
2023-01-12T11:58:11.499Z,1004.29
2023-01-12T11:59:11.520Z,1004.30
2023-01-12T12:00:11.499Z,1004.33
2023-01-12T12:01:11.540Z,1004.30
2023-01-12T12:02:11.684Z,1004.21
2023-01-12T12:03:11.491Z,1004.30
2023-01-12T12:04:11.502Z,1004.31
2023-01-12T12:05:11.497Z,1004.38
2023-01-12T12:06:11.476Z,1004.32
2023-01-12T12:07:11.489Z,1004.32
2023-01-12T12:08:11.491Z,1004.39
2023-01-12T12:09:11.504Z,1004.30
2023-01-12T12:10:11.481Z,1004.31
2023-01-12T12:11:11.494Z,1004.27
2023-01-12T12:12:11.507Z,1004.10
2023-01-12T12:13:11.489Z,1004.27
2023-01-12T12:14:11.519Z,1004.27